createdAt,value
2017-12-28T00:02:15.953Z,85.20
2017-12-28T00:04:43.001Z,84.30
2017-12-28T00:07:09.218Z,85.60
2017-12-28T00:09:35.327Z,86.00
2017-12-28T00:12:01.472Z,85.60
2017-12-28T00:14:28.962Z,85.60
2017-12-28T00:16:55.247Z,85.30
2017-12-28T00:19:21.349Z,84.80
2017-12-28T00:21:47.448Z,84.70
2017-12-28T00:24:13.543Z,84.60
2017-12-28T00:26:39.674Z,83.80
2017-12-28T00:29:06.648Z,84.30
2017-12-28T00:31:33.552Z,84.10
2017-12-28T00:33:59.815Z,84.10
2017-12-28T00:36:25.957Z,83.50
2017-12-28T00:38:53.155Z,84.10
2017-12-28T00:41:19.580Z,83.30
2017-12-28T00:43:45.738Z,83.70
2017-12-28T00:46:11.875Z,83.70
2017-12-28T00:48:38.583Z,83.30
2017-12-28T00:51:04.714Z,83.10
2017-12-28T00:53:31.876Z,83.20
2017-12-28T00:55:58.025Z,84.20
2017-12-28T00:58:25.123Z,84.50
2017-12-28T01:00:51.292Z,84.10
2017-12-28T01:03:18.224Z,83.60
2017-12-28T01:05:44.337Z,83.50
2017-12-28T01:08:11.910Z,83.00
2017-12-28T01:10:38.040Z,83.00
2017-12-28T01:13:04.160Z,83.60
2017-12-28T01:15:30.293Z,83.60
2017-12-28T01:17:56.416Z,83.30
2017-12-28T01:20:23.361Z,82.50
2017-12-28T01:22:49.459Z,82.50
2017-12-28T01:25:15.553Z,82.50
2017-12-28T01:27:41.634Z,82.80
2017-12-28T01:30:08.484Z,83.50
2017-12-28T01:32:34.591Z,83.50
2017-12-28T01:35:00.917Z,84.00
2017-12-28T01:37:27.976Z,84.70
2017-12-28T01:39:54.260Z,84.50
2017-12-28T01:42:20.462Z,84.70
2017-12-28T01:44:46.655Z,84.70
2017-12-28T01:47:15.898Z,84.10
2017-12-28T01:49:42.015Z,84.10
2017-12-28T01:52:08.164Z,83.80
2017-12-28T01:54:34.977Z,84.30
2017-12-28T01:57:01.180Z,84.00
2017-12-28T01:59:27.291Z,84.90
2017-12-28T02:01:53.534Z,84.10
2017-12-28T02:04:19.812Z,84.20
2017-12-28T02:06:45.915Z,84.00
2017-12-28T02:09:12.014Z,84.10
2017-12-28T02:11:38.112Z,83.40
2017-12-28T02:14:05.177Z,83.90
2017-12-28T02:16:31.293Z,83.90
2017-12-28T02:18:57.388Z,83.90
2017-12-28T02:21:23.551Z,83.90
2017-12-28T02:23:50.390Z,84.00
2017-12-28T02:26:17.095Z,83.90
2017-12-28T02:28:43.856Z,84.10
2017-12-28T02:31:09.992Z,84.00
2017-12-28T02:33:36.926Z,84.60
2017-12-28T02:36:03.076Z,83.80
2017-12-28T02:38:29.192Z,84.30
2017-12-28T02:40:55.361Z,84.60
2017-12-28T02:43:21.754Z,84.50
2017-12-28T02:45:49.621Z,84.90
2017-12-28T02:48:15.892Z,85.20
2017-12-28T02:50:42.055Z,83.60
2017-12-28T02:53:08.192Z,84.80
2017-12-28T02:55:34.316Z,84.20
2017-12-28T02:58:01.172Z,83.90
2017-12-28T03:00:28.249Z,84.30
2017-12-28T03:02:54.353Z,84.30
2017-12-28T03:05:20.475Z,84.80
2017-12-28T03:07:46.581Z,84.20
2017-12-28T03:10:12.672Z,84.60
2017-12-28T03:12:40.753Z,84.50
2017-12-28T03:15:07.025Z,84.50
2017-12-28T03:17:33.147Z,83.90
2017-12-28T03:19:59.973Z,83.60
2017-12-28T03:22:26.120Z,83.60
2017-12-28T03:24:52.963Z,84.30
2017-12-28T03:27:19.066Z,84.20
2017-12-28T03:29:45.155Z,84.70
2017-12-28T03:32:12.692Z,84.70
2017-12-28T03:34:38.850Z,84.60
2017-12-28T03:37:04.942Z,83.80
2017-12-28T03:39:31.457Z,84.40
2017-12-28T03:41:57.603Z,84.40
2017-12-28T03:44:25.458Z,84.40
2017-12-28T03:46:52.553Z,84.60
2017-12-28T03:49:18.858Z,84.40
2017-12-28T03:51:45.755Z,83.90
2017-12-28T03:54:11.940Z,83.90
2017-12-28T03:56:38.035Z,84.20
2017-12-28T03:59:05.020Z,85.10
2017-12-28T04:01:31.118Z,84.30
2017-12-28T04:03:57.933Z,85.00
2017-12-28T04:06:24.254Z,84.40
2017-12-28T04:08:50.568Z,83.80
2017-12-28T04:11:16.695Z,84.00
2017-12-28T04:13:43.551Z,84.70
2017-12-28T04:16:09.825Z,84.70
2017-12-28T04:18:35.951Z,84.10
2017-12-28T04:21:02.078Z,83.80
2017-12-28T04:23:28.253Z,84.40
2017-12-28T04:25:54.370Z,84.50
2017-12-28T04:28:20.482Z,85.00
2017-12-28T04:30:46.979Z,85.00
2017-12-28T04:33:13.207Z,85.00
2017-12-28T04:35:39.585Z,84.80
2017-12-28T04:38:05.693Z,84.60
2017-12-28T04:40:31.964Z,84.00
2017-12-28T04:42:58.833Z,84.50
2017-12-28T04:45:25.051Z,84.20
2017-12-28T04:47:51.169Z,83.90
2017-12-28T04:50:17.260Z,84.10
2017-12-28T04:52:44.102Z,83.80
2017-12-28T04:55:10.204Z,83.70
2017-12-28T04:57:37.042Z,84.10
2017-12-28T05:00:03.631Z,84.10
2017-12-28T05:02:29.926Z,84.30
2017-12-28T05:04:56.849Z,84.80
2017-12-28T05:07:23.776Z,84.70
2017-12-28T05:09:49.885Z,85.00
2017-12-28T05:12:16.753Z,84.60
2017-12-28T05:14:42.935Z,84.60
2017-12-28T05:17:09.040Z,83.70
2017-12-28T05:19:36.314Z,83.70
2017-12-28T05:22:02.447Z,83.40
2017-12-28T05:24:28.750Z,83.80
2017-12-28T05:26:54.927Z,83.30
2017-12-28T05:29:21.064Z,83.20
2017-12-28T05:31:48.783Z,84.00
2017-12-28T05:34:14.936Z,83.10
2017-12-28T05:36:41.131Z,83.10
2017-12-28T05:39:07.305Z,83.10
2017-12-28T05:41:34.788Z,83.00
2017-12-28T05:44:00.939Z,83.50
2017-12-28T05:46:27.410Z,83.20
2017-12-28T05:48:54.248Z,83.20
2017-12-28T05:51:20.471Z,83.30
2017-12-28T05:53:46.629Z,83.60
2017-12-28T05:56:13.089Z,83.80
2017-12-28T05:58:39.254Z,84.00
2017-12-28T06:01:05.368Z,84.40
2017-12-28T06:03:31.548Z,83.90
2017-12-28T06:05:57.668Z,83.90
2017-12-28T06:08:23.792Z,83.50
2017-12-28T06:10:50.914Z,83.50
2017-12-28T06:13:17.060Z,83.20
2017-12-28T06:15:43.942Z,82.90
2017-12-28T06:18:10.748Z,82.90
2017-12-28T06:20:36.937Z,83.60
2017-12-28T06:23:03.069Z,83.70
2017-12-28T06:25:30.370Z,83.50
2017-12-28T06:27:56.692Z,83.20
2017-12-28T06:30:22.799Z,83.30
2017-12-28T06:32:48.955Z,83.20
2017-12-28T06:35:15.109Z,83.50
2017-12-28T06:37:41.222Z,84.00
2017-12-28T06:40:07.560Z,83.60
2017-12-28T06:42:34.226Z,83.10
2017-12-28T06:45:00.339Z,83.10
2017-12-28T06:47:27.089Z,83.50
2017-12-28T06:49:53.321Z,83.60
2017-12-28T06:52:19.466Z,83.60
2017-12-28T06:54:46.326Z,84.50
2017-12-28T06:57:12.672Z,84.50
2017-12-28T06:59:38.794Z,84.80
2017-12-28T07:02:05.655Z,84.00
2017-12-28T07:04:32.509Z,84.00
2017-12-28T07:06:59.392Z,83.90
2017-12-28T07:09:25.704Z,83.90
2017-12-28T07:11:52.576Z,83.90
2017-12-28T07:14:19.740Z,83.80
2017-12-28T07:16:46.165Z,83.70
2017-12-28T07:19:12.277Z,83.70
2017-12-28T07:21:38.388Z,83.80
2017-12-28T07:24:04.521Z,84.10
2017-12-28T07:26:30.611Z,84.60
2017-12-28T07:28:57.078Z,83.80
2017-12-28T07:31:23.200Z,83.70
2017-12-28T07:33:49.300Z,83.50
2017-12-28T07:36:15.399Z,83.40
2017-12-28T07:38:42.243Z,83.70
2017-12-28T07:41:09.083Z,83.30
2017-12-28T07:43:35.184Z,83.80
2017-12-28T07:46:01.416Z,83.20
2017-12-28T07:48:27.516Z,83.70
2017-12-28T07:50:54.394Z,84.30
2017-12-28T07:53:20.925Z,84.20
2017-12-28T07:55:47.193Z,84.30
2017-12-28T07:58:13.308Z,84.00
2017-12-28T08:00:40.160Z,84.30
2017-12-28T08:03:06.284Z,84.30
2017-12-28T08:05:33.140Z,84.60
2017-12-28T08:08:00.012Z,84.70
2017-12-28T08:10:26.117Z,84.60
2017-12-28T08:12:52.242Z,84.60
2017-12-28T08:15:18.362Z,84.50
2017-12-28T08:17:44.500Z,84.70
2017-12-28T08:20:11.446Z,84.70
2017-12-28T08:22:37.561Z,84.70
2017-12-28T08:25:03.856Z,84.70
2017-12-28T08:27:30.095Z,84.70
2017-12-28T08:29:56.363Z,84.90
2017-12-28T08:32:23.445Z,84.60
2017-12-28T08:34:49.583Z,84.20
2017-12-28T08:37:18.321Z,84.20
2017-12-28T08:39:44.430Z,83.80
2017-12-28T08:42:10.699Z,84.10
2017-12-28T08:44:36.990Z,84.10
2017-12-28T08:47:03.232Z,84.30
2017-12-28T08:49:29.338Z,84.20
2017-12-28T08:51:55.446Z,84.80
2017-12-28T08:54:21.565Z,83.70
2017-12-28T08:56:47.987Z,84.10
2017-12-28T08:59:14.284Z,84.30
2017-12-28T09:01:40.787Z,85.20
2017-12-28T09:04:07.165Z,84.70
2017-12-28T09:06:34.812Z,84.80
2017-12-28T09:09:02.294Z,84.40
2017-12-28T09:11:29.285Z,84.50
2017-12-28T09:13:55.416Z,84.50
2017-12-28T09:16:21.586Z,84.80
2017-12-28T09:18:47.853Z,84.50
2017-12-28T09:21:14.009Z,83.90
2017-12-28T09:23:41.070Z,83.70
2017-12-28T09:26:07.288Z,84.30
2017-12-28T09:28:34.308Z,84.50
2017-12-28T09:31:00.672Z,84.00
2017-12-28T09:33:28.089Z,83.70
2017-12-28T09:35:54.973Z,84.20
2017-12-28T09:38:21.141Z,84.10
2017-12-28T09:40:47.267Z,84.00
2017-12-28T09:43:13.389Z,83.90
2017-12-28T09:45:39.602Z,84.20
2017-12-28T09:48:05.867Z,83.90
2017-12-28T09:50:32.739Z,84.40
2017-12-28T09:52:58.890Z,84.30
2017-12-28T09:55:25.197Z,84.40
2017-12-28T09:57:51.347Z,84.20
2017-12-28T10:00:17.961Z,84.80
2017-12-28T10:02:44.128Z,84.80
2017-12-28T10:05:10.245Z,84.40
2017-12-28T10:07:36.552Z,84.50
2017-12-28T10:10:02.741Z,84.40
2017-12-28T10:12:28.872Z,83.60
2017-12-28T10:14:54.975Z,84.20
2017-12-28T10:17:21.427Z,83.50
2017-12-28T10:19:48.478Z,84.40
2017-12-28T10:22:15.379Z,83.90
2017-12-28T10:24:41.885Z,83.90
2017-12-28T10:27:08.062Z,83.30
2017-12-28T10:29:34.183Z,83.80
2017-12-28T10:32:00.283Z,83.70
2017-12-28T10:34:26.401Z,82.90
2017-12-28T10:36:53.400Z,82.60
2017-12-28T10:39:19.555Z,82.60
2017-12-28T10:41:45.881Z,82.00
2017-12-28T10:44:11.985Z,82.70
2017-12-28T10:46:38.164Z,82.80
2017-12-28T10:49:04.323Z,81.90
2017-12-28T10:51:30.459Z,82.60
2017-12-28T10:53:56.784Z,82.40
2017-12-28T10:56:22.951Z,82.70
2017-12-28T10:58:49.175Z,81.30
2017-12-28T11:01:15.446Z,81.70
2017-12-28T11:03:41.651Z,81.60
2017-12-28T11:06:08.295Z,81.80
2017-12-28T11:08:34.432Z,81.30
2017-12-28T11:11:00.689Z,80.80
2017-12-28T11:13:27.625Z,81.10
2017-12-28T11:15:53.901Z,81.30
2017-12-28T11:18:20.046Z,80.70
2017-12-28T11:20:46.333Z,82.10
2017-12-28T11:23:12.708Z,80.90
2017-12-28T11:25:38.882Z,80.90
2017-12-28T11:28:05.000Z,81.40
2017-12-28T11:30:31.224Z,80.80
2017-12-28T11:32:57.460Z,80.40
2017-12-28T11:35:24.305Z,78.90
2017-12-28T11:37:51.220Z,78.70
2017-12-28T11:40:17.317Z,78.70
2017-12-28T11:42:43.413Z,78.50
2017-12-28T11:45:09.589Z,78.40
2017-12-28T11:47:36.514Z,77.40
2017-12-28T11:50:09.605Z,77.60
2017-12-28T11:52:37.164Z,77.00
2017-12-28T11:55:04.264Z,76.60
2017-12-28T11:57:31.130Z,76.40
2017-12-28T11:59:57.252Z,75.80
2017-12-28T12:02:29.520Z,71.00
2017-12-28T12:04:55.991Z,69.10
2017-12-28T12:07:28.137Z,68.10
2017-12-28T12:09:57.939Z,66.00
2017-12-28T12:12:24.311Z,66.30
2017-12-28T12:14:50.696Z,64.60
2017-12-28T12:17:17.052Z,63.80
2017-12-28T12:19:43.352Z,64.40
2017-12-28T12:22:09.984Z,64.10
2017-12-28T12:24:36.364Z,63.00
2017-12-28T12:27:02.821Z,61.40
2017-12-28T12:29:29.871Z,58.80
2017-12-28T12:31:56.247Z,60.60
2017-12-28T12:34:22.626Z,57.60
2017-12-28T12:36:50.855Z,58.00
2017-12-28T12:39:17.924Z,57.80
2017-12-28T12:41:44.973Z,59.00
2017-12-28T12:44:12.376Z,58.90
2017-12-28T12:46:39.212Z,58.40
2017-12-28T12:49:05.305Z,58.40
2017-12-28T12:51:31.452Z,60.50
2017-12-28T12:53:57.576Z,59.40
2017-12-28T12:56:23.870Z,58.80
2017-12-28T12:58:50.062Z,58.30
2017-12-28T13:01:16.209Z,58.50
2017-12-28T13:03:42.342Z,60.20
2017-12-28T13:06:08.489Z,58.10
2017-12-28T13:08:34.693Z,57.90
2017-12-28T13:11:00.856Z,57.70
2017-12-28T13:13:26.986Z,58.20
2017-12-28T13:15:53.140Z,59.10
2017-12-28T13:18:19.250Z,58.60
2017-12-28T13:20:45.716Z,57.90
2017-12-28T13:23:12.764Z,57.60
2017-12-28T13:25:39.136Z,57.60
2017-12-28T13:28:09.624Z,57.00
2017-12-28T13:30:36.463Z,56.40
2017-12-28T13:33:02.571Z,56.50
2017-12-28T13:35:28.681Z,56.20
2017-12-28T13:37:54.788Z,55.60
2017-12-28T13:40:20.897Z,56.80
2017-12-28T13:42:47.060Z,55.10
2017-12-28T13:45:13.172Z,54.20
2017-12-28T13:47:40.124Z,53.20
2017-12-28T13:50:06.445Z,53.20
2017-12-28T13:52:32.592Z,53.80
2017-12-28T13:54:58.712Z,53.10
2017-12-28T13:57:24.823Z,55.30
2017-12-28T13:59:51.849Z,53.70
2017-12-28T14:02:20.723Z,53.70
2017-12-28T14:04:46.812Z,51.70
2017-12-28T14:07:13.656Z,53.00
2017-12-28T14:09:39.758Z,53.20
2017-12-28T14:12:05.839Z,53.90
2017-12-28T14:14:32.716Z,53.70
2017-12-28T14:16:58.872Z,52.50
2017-12-28T14:19:25.208Z,53.10
2017-12-28T14:21:51.636Z,54.40
2017-12-28T14:24:18.143Z,55.30
2017-12-28T14:26:44.472Z,53.70
2017-12-28T14:29:10.760Z,54.00
2017-12-28T14:31:38.187Z,54.40
2017-12-28T14:34:04.284Z,54.50
2017-12-28T14:36:30.477Z,55.70
2017-12-28T14:38:56.721Z,55.10
2017-12-28T14:41:22.833Z,55.20
2017-12-28T14:43:49.131Z,54.50
2017-12-28T14:46:16.172Z,54.40
2017-12-28T14:48:42.268Z,54.40
2017-12-28T14:51:08.500Z,55.10
2017-12-28T14:53:34.817Z,54.00
2017-12-28T14:56:01.127Z,53.90
2017-12-28T14:58:27.412Z,53.30
2017-12-28T15:00:54.630Z,53.30
2017-12-28T15:03:21.725Z,54.30
2017-12-28T15:05:48.811Z,53.70
2017-12-28T15:08:15.309Z,53.80
2017-12-28T15:10:41.631Z,53.50
2017-12-28T15:13:08.229Z,52.40
2017-12-28T15:15:35.292Z,53.40
2017-12-28T15:18:01.633Z,53.40
2017-12-28T15:20:28.020Z,54.20
2017-12-28T15:22:55.206Z,53.70
2017-12-28T15:25:21.543Z,53.70
2017-12-28T15:27:47.860Z,53.90
2017-12-28T15:30:14.223Z,54.10
2017-12-28T15:32:40.728Z,54.30
2017-12-28T15:35:08.043Z,55.60
2017-12-28T15:37:34.356Z,55.60
2017-12-28T15:40:00.737Z,55.70
2017-12-28T15:42:27.052Z,55.10
2017-12-28T15:44:53.406Z,55.70
2017-12-28T15:47:19.727Z,54.60
2017-12-28T15:49:46.412Z,55.70
2017-12-28T15:52:12.713Z,55.40
2017-12-28T15:54:39.019Z,54.70
2017-12-28T15:57:05.768Z,55.70
2017-12-28T15:59:32.993Z,56.90
2017-12-28T16:01:59.324Z,56.90
2017-12-28T16:04:25.730Z,55.60
2017-12-28T16:06:52.099Z,55.50
2017-12-28T16:09:18.650Z,56.20
2017-12-28T16:11:45.011Z,55.30
2017-12-28T16:14:11.330Z,56.10
2017-12-28T16:16:37.644Z,55.20
2017-12-28T16:19:03.968Z,55.10
2017-12-28T16:21:31.008Z,54.90
2017-12-28T16:23:57.442Z,55.40
2017-12-28T16:26:23.829Z,55.80
2017-12-28T16:28:50.875Z,55.80
2017-12-28T16:31:17.179Z,55.70
2017-12-28T16:33:43.506Z,55.80
2017-12-28T16:36:09.802Z,57.00
2017-12-28T16:38:36.191Z,55.50
2017-12-28T16:41:02.659Z,55.50
2017-12-28T16:43:28.976Z,55.40
2017-12-28T16:45:55.283Z,55.80
2017-12-28T16:48:22.319Z,57.60
2017-12-28T16:50:48.655Z,57.60
2017-12-28T16:53:15.740Z,58.40
2017-12-28T16:55:42.873Z,58.10
2017-12-28T16:58:09.071Z,58.00
2017-12-28T17:00:35.948Z,57.80
2017-12-28T17:03:02.060Z,57.80
2017-12-28T17:05:28.458Z,59.20
2017-12-28T17:07:54.569Z,59.50
2017-12-28T17:10:20.875Z,59.20
2017-12-28T17:12:48.713Z,58.50
2017-12-28T17:15:15.130Z,58.70
2017-12-28T17:17:41.467Z,58.20
2017-12-28T17:20:07.772Z,58.00
2017-12-28T17:22:34.958Z,58.90
2017-12-28T17:25:01.276Z,58.80
2017-12-28T17:27:28.399Z,58.80
2017-12-28T17:29:54.692Z,58.80
2017-12-28T17:32:20.933Z,59.60
2017-12-28T17:34:47.377Z,59.50
2017-12-28T17:37:13.831Z,60.00
2017-12-28T17:39:40.252Z,59.60
2017-12-28T17:42:06.588Z,59.60
2017-12-28T17:44:32.933Z,60.10
2017-12-28T17:46:59.275Z,60.20
2017-12-28T17:49:26.352Z,59.90
2017-12-28T17:51:53.543Z,60.40
2017-12-28T17:54:20.901Z,60.50
2017-12-28T17:56:47.262Z,60.00
2017-12-28T17:59:13.617Z,60.60
2017-12-28T18:01:39.936Z,60.20
2017-12-28T18:04:06.259Z,61.00
2017-12-28T18:06:32.582Z,60.20
2017-12-28T18:08:59.635Z,61.10
2017-12-28T18:11:26.036Z,61.00
2017-12-28T18:13:52.649Z,61.10
2017-12-28T18:16:19.200Z,62.00
2017-12-28T18:18:46.295Z,61.50
2017-12-28T18:21:12.744Z,61.00
2017-12-28T18:23:39.259Z,61.20
2017-12-28T18:26:05.658Z,61.50
2017-12-28T18:28:32.972Z,61.90
2017-12-28T18:30:59.388Z,61.90
2017-12-28T18:33:25.808Z,62.10
2017-12-28T18:35:52.122Z,61.90
2017-12-28T18:38:18.437Z,62.60
2017-12-28T18:40:45.486Z,61.80
2017-12-28T18:43:11.791Z,61.70
2017-12-28T18:45:38.114Z,61.90
2017-12-28T18:48:04.528Z,62.40
2017-12-28T18:50:31.631Z,61.80
2017-12-28T18:52:57.973Z,61.70
2017-12-28T18:55:24.368Z,62.30
2017-12-28T18:57:51.445Z,61.80
2017-12-28T19:00:17.753Z,61.80
2017-12-28T19:02:44.080Z,62.50
2017-12-28T19:05:10.400Z,63.30
2017-12-28T19:07:36.851Z,61.60
2017-12-28T19:10:03.184Z,62.20
2017-12-28T19:12:29.495Z,61.80
2017-12-28T19:14:55.825Z,63.10
2017-12-28T19:17:22.996Z,62.50
2017-12-28T19:19:50.133Z,63.00
2017-12-28T19:22:16.457Z,62.90
2017-12-28T19:24:43.503Z,63.00
2017-12-28T19:27:09.649Z,63.50
2017-12-28T19:29:35.751Z,63.50
2017-12-28T19:32:02.087Z,63.30
2017-12-28T19:34:28.492Z,62.80
2017-12-28T19:36:54.813Z,62.20
2017-12-28T19:39:21.120Z,61.60
2017-12-28T19:41:48.273Z,64.20
2017-12-28T19:44:25.836Z,64.30
2017-12-28T19:47:08.839Z,63.60
2017-12-28T19:49:40.555Z,63.70
2017-12-28T19:52:06.719Z,63.10
2017-12-28T19:54:32.828Z,63.10
2017-12-28T19:56:58.989Z,63.80
2017-12-28T19:59:26.152Z,64.10
2017-12-28T20:01:53.704Z,64.00
2017-12-28T20:04:20.768Z,64.70
2017-12-28T20:06:46.894Z,64.60
2017-12-28T20:09:13.186Z,63.50
2017-12-28T20:11:40.352Z,63.30
2017-12-28T20:14:07.225Z,63.00
2017-12-28T20:16:33.340Z,63.00
2017-12-28T20:18:59.544Z,63.60
2017-12-28T20:21:25.660Z,63.30
2017-12-28T20:23:51.828Z,62.70
2017-12-28T20:26:18.020Z,62.90
2017-12-28T20:28:44.262Z,64.70
2017-12-28T20:31:11.082Z,63.70
2017-12-28T20:33:37.801Z,64.80
2017-12-28T20:36:04.015Z,64.50
2017-12-28T20:38:31.080Z,65.00
2017-12-28T20:40:57.310Z,64.70
2017-12-28T20:48:45.506Z,62.30
2017-12-28T20:51:11.609Z,63.10
2017-12-28T20:53:37.699Z,63.20
2017-12-28T20:56:03.820Z,63.10
2017-12-28T20:58:31.094Z,63.60
2017-12-28T21:00:57.965Z,63.50
2017-12-28T21:03:24.803Z,64.30
2017-12-28T21:05:51.085Z,64.30
2017-12-28T21:08:17.252Z,65.00
2017-12-28T21:10:43.349Z,64.60
2017-12-28T21:13:09.508Z,64.80
2017-12-28T21:15:36.377Z,65.60
2017-12-28T21:18:02.531Z,65.60
2017-12-28T21:20:28.666Z,65.00
2017-12-28T21:22:54.800Z,65.10
2017-12-28T21:25:21.653Z,64.40
2017-12-28T21:27:48.570Z,65.70
2017-12-28T21:30:14.688Z,65.60
2017-12-28T21:32:40.817Z,65.40
2017-12-28T21:35:06.923Z,64.70
2017-12-28T21:37:33.820Z,66.00
2017-12-28T21:40:00.698Z,65.20
2017-12-28T21:42:26.909Z,65.10
2017-12-28T21:44:53.003Z,64.70
2017-12-28T21:47:19.856Z,64.20
2017-12-28T21:49:45.968Z,64.20
2017-12-28T21:52:12.148Z,66.40
2017-12-28T21:54:38.994Z,65.10
2017-12-28T21:57:05.204Z,65.10
2017-12-28T21:59:31.300Z,64.70
2017-12-28T22:01:57.412Z,65.00
2017-12-28T22:04:24.256Z,64.90
2017-12-28T22:06:50.517Z,64.80
2017-12-28T22:09:17.371Z,65.90
2017-12-28T22:11:44.350Z,65.60
2017-12-28T22:14:11.247Z,65.60
2017-12-28T22:16:37.368Z,65.50
2017-12-28T22:19:03.471Z,65.20
2017-12-28T22:21:29.642Z,65.30
2017-12-28T22:23:55.766Z,65.90
2017-12-28T22:26:21.868Z,65.10
2017-12-28T22:28:48.028Z,64.70
2017-12-28T22:31:14.405Z,65.00
2017-12-28T22:33:41.251Z,64.90
2017-12-28T22:36:07.345Z,64.90
2017-12-28T22:38:34.215Z,64.40
2017-12-28T22:41:00.455Z,64.30
2017-12-28T22:43:26.564Z,65.50
2017-12-28T22:45:52.666Z,66.30
2017-12-28T22:48:19.563Z,64.60
2017-12-28T22:50:45.689Z,64.60
2017-12-28T22:53:11.834Z,64.20
2017-12-28T22:55:37.937Z,65.60
2017-12-28T22:58:04.091Z,64.30
2017-12-28T23:00:30.258Z,64.30
2017-12-28T23:02:57.121Z,64.20
2017-12-28T23:05:23.980Z,64.50
2017-12-28T23:07:50.113Z,64.60
2017-12-28T23:10:16.267Z,65.20
2017-12-28T23:12:42.378Z,64.70
2017-12-28T23:15:08.511Z,65.20
2017-12-28T23:17:35.368Z,64.10
2017-12-28T23:20:02.244Z,64.20
2017-12-28T23:22:29.887Z,65.50
2017-12-28T23:24:55.985Z,65.50
2017-12-28T23:27:22.095Z,64.50
2017-12-28T23:29:50.855Z,64.30
2017-12-28T23:32:16.982Z,65.70
2017-12-28T23:34:43.087Z,64.70
2017-12-28T23:37:09.194Z,65.00
2017-12-28T23:39:36.044Z,64.40
2017-12-28T23:42:02.204Z,64.40
2017-12-28T23:44:28.468Z,64.30
2017-12-28T23:46:54.595Z,64.30
2017-12-28T23:49:21.468Z,64.30
2017-12-28T23:51:47.649Z,64.30
2017-12-28T23:54:14.544Z,64.60
2017-12-28T23:56:40.727Z,64.50
2017-12-28T23:59:06.873Z,65.40
